sensor_id;sensor_type;location;lat;lon;timestamp;P1;durP1;ratioP1;P2;durP2;ratioP2
78324;SDS011;67584;51.400;6.692;2024-01-07T00:00:24;19.20;;;10.20;;
78324;SDS011;67584;51.400;6.692;2024-01-07T00:02:49;15.93;;;9.20;;
78324;SDS011;67584;51.400;6.692;2024-01-07T00:05:15;18.83;;;9.40;;
78324;SDS011;67584;51.400;6.692;2024-01-07T00:07:41;18.30;;;9.90;;
78324;SDS011;67584;51.400;6.692;2024-01-07T00:10:06;17.63;;;10.10;;
78324;SDS011;67584;51.400;6.692;2024-01-07T00:12:34;15.45;;;9.27;;
78324;SDS011;67584;51.400;6.692;2024-01-07T00:15:00;16.67;;;9.27;;
78324;SDS011;67584;51.400;6.692;2024-01-07T00:17:26;18.17;;;10.70;;
78324;SDS011;67584;51.400;6.692;2024-01-07T00:19:51;21.38;;;10.55;;
78324;SDS011;67584;51.400;6.692;2024-01-07T00:22:17;18.23;;;10.32;;
78324;SDS011;67584;51.400;6.692;2024-01-07T00:24:43;17.92;;;9.82;;
78324;SDS011;67584;51.400;6.692;2024-01-07T00:27:09;18.98;;;9.98;;
78324;SDS011;67584;51.400;6.692;2024-01-07T00:29:34;17.55;;;10.90;;
78324;SDS011;67584;51.400;6.692;2024-01-07T00:32:01;17.20;;;9.40;;
78324;SDS011;67584;51.400;6.692;2024-01-07T00:34:27;18.75;;;11.00;;
78324;SDS011;67584;51.400;6.692;2024-01-07T00:36:52;16.98;;;9.93;;
78324;SDS011;67584;51.400;6.692;2024-01-07T00:39:18;19.00;;;10.10;;
78324;SDS011;67584;51.400;6.692;2024-01-07T00:41:44;18.65;;;10.45;;
78324;SDS011;67584;51.400;6.692;2024-01-07T00:44:09;18.70;;;10.98;;
78324;SDS011;67584;51.400;6.692;2024-01-07T00:46:35;17.38;;;9.57;;
78324;SDS011;67584;51.400;6.692;2024-01-07T00:49:01;16.42;;;10.02;;
78324;SDS011;67584;51.400;6.692;2024-01-07T00:51:27;15.95;;;10.00;;
78324;SDS011;67584;51.400;6.692;2024-01-07T00:53:52;15.02;;;10.20;;
78324;SDS011;67584;51.400;6.692;2024-01-07T00:56:18;15.88;;;9.38;;
78324;SDS011;67584;51.400;6.692;2024-01-07T00:58:43;14.32;;;9.18;;
78324;SDS011;67584;51.400;6.692;2024-01-07T01:01:09;13.00;;;8.65;;
78324;SDS011;67584;51.400;6.692;2024-01-07T01:03:35;13.43;;;8.05;;
78324;SDS011;67584;51.400;6.692;2024-01-07T01:06:01;12.07;;;8.40;;
78324;SDS011;67584;51.400;6.692;2024-01-07T01:08:27;12.50;;;8.05;;
78324;SDS011;67584;51.400;6.692;2024-01-07T01:10:53;14.20;;;8.02;;
78324;SDS011;67584;51.400;6.692;2024-01-07T01:13:19;12.40;;;7.68;;
78324;SDS011;67584;51.400;6.692;2024-01-07T01:15:44;11.13;;;7.22;;
78324;SDS011;67584;51.400;6.692;2024-01-07T01:18:10;12.32;;;8.52;;
78324;SDS011;67584;51.400;6.692;2024-01-07T01:20:36;13.73;;;9.48;;
78324;SDS011;67584;51.400;6.692;2024-01-07T01:23:01;12.82;;;8.07;;
78324;SDS011;67584;51.400;6.692;2024-01-07T01:25:27;12.18;;;8.35;;
78324;SDS011;67584;51.400;6.692;2024-01-07T01:27:54;8.43;;;6.28;;
78324;SDS011;67584;51.400;6.692;2024-01-07T01:30:21;12.27;;;7.40;;
78324;SDS011;67584;51.400;6.692;2024-01-07T01:32:46;10.15;;;7.68;;
78324;SDS011;67584;51.400;6.692;2024-01-07T01:35:13;11.10;;;6.95;;
78324;SDS011;67584;51.400;6.692;2024-01-07T01:37:39;11.18;;;6.95;;
78324;SDS011;67584;51.400;6.692;2024-01-07T01:40:05;10.13;;;7.05;;
78324;SDS011;67584;51.400;6.692;2024-01-07T01:42:31;9.48;;;6.78;;
78324;SDS011;67584;51.400;6.692;2024-01-07T01:44:57;11.75;;;7.82;;
78324;SDS011;67584;51.400;6.692;2024-01-07T01:47:26;11.20;;;7.32;;
78324;SDS011;67584;51.400;6.692;2024-01-07T01:49:53;13.55;;;8.32;;
78324;SDS011;67584;51.400;6.692;2024-01-07T01:52:19;13.90;;;8.95;;
78324;SDS011;67584;51.400;6.692;2024-01-07T01:54:45;15.27;;;9.25;;
78324;SDS011;67584;51.400;6.692;2024-01-07T01:57:13;17.25;;;9.60;;
78324;SDS011;67584;51.400;6.692;2024-01-07T01:59:44;15.57;;;9.55;;
78324;SDS011;67584;51.400;6.692;2024-01-07T02:02:10;12.05;;;8.50;;
78324;SDS011;67584;51.400;6.692;2024-01-07T02:04:36;12.70;;;8.68;;
78324;SDS011;67584;51.400;6.692;2024-01-07T02:07:02;14.55;;;8.90;;
78324;SDS011;67584;51.400;6.692;2024-01-07T02:09:27;13.50;;;8.35;;
78324;SDS011;67584;51.400;6.692;2024-01-07T02:12:00;18.42;;;10.73;;
78324;SDS011;67584;51.400;6.692;2024-01-07T02:14:27;12.38;;;8.48;;
78324;SDS011;67584;51.400;6.692;2024-01-07T02:16:53;14.88;;;9.90;;
78324;SDS011;67584;51.400;6.692;2024-01-07T02:19:18;14.98;;;9.68;;
78324;SDS011;67584;51.400;6.692;2024-01-07T02:21:46;14.45;;;9.48;;
78324;SDS011;67584;51.400;6.692;2024-01-07T02:24:15;17.88;;;9.85;;
78324;SDS011;67584;51.400;6.692;2024-01-07T02:26:41;16.48;;;9.95;;
78324;SDS011;67584;51.400;6.692;2024-01-07T02:29:07;17.80;;;9.70;;
78324;SDS011;67584;51.400;6.692;2024-01-07T02:31:33;18.98;;;11.13;;
78324;SDS011;67584;51.400;6.692;2024-01-07T02:33:58;16.00;;;10.38;;
78324;SDS011;67584;51.400;6.692;2024-01-07T02:36:24;18.77;;;11.60;;
78324;SDS011;67584;51.400;6.692;2024-01-07T02:38:50;17.25;;;11.23;;
78324;SDS011;67584;51.400;6.692;2024-01-07T02:41:15;18.52;;;10.40;;
78324;SDS011;67584;51.400;6.692;2024-01-07T02:43:41;17.55;;;10.38;;
78324;SDS011;67584;51.400;6.692;2024-01-07T02:46:07;18.90;;;11.27;;
78324;SDS011;67584;51.400;6.692;2024-01-07T02:48:33;17.60;;;11.25;;
78324;SDS011;67584;51.400;6.692;2024-01-07T02:50:59;20.13;;;11.45;;
78324;SDS011;67584;51.400;6.692;2024-01-07T02:53:25;21.75;;;11.25;;
78324;SDS011;67584;51.400;6.692;2024-01-07T02:55:51;20.25;;;11.48;;
78324;SDS011;67584;51.400;6.692;2024-01-07T02:58:16;20.55;;;12.15;;
78324;SDS011;67584;51.400;6.692;2024-01-07T03:00:42;20.30;;;11.10;;
78324;SDS011;67584;51.400;6.692;2024-01-07T03:03:07;15.93;;;9.63;;
78324;SDS011;67584;51.400;6.692;2024-01-07T03:05:33;17.70;;;10.20;;
78324;SDS011;67584;51.400;6.692;2024-01-07T03:07:59;19.30;;;11.73;;
78324;SDS011;67584;51.400;6.692;2024-01-07T03:10:25;20.58;;;10.82;;
78324;SDS011;67584;51.400;6.692;2024-01-07T03:12:51;14.07;;;10.07;;
78324;SDS011;67584;51.400;6.692;2024-01-07T03:15:17;17.38;;;10.60;;
78324;SDS011;67584;51.400;6.692;2024-01-07T03:17:43;15.57;;;9.23;;
78324;SDS011;67584;51.400;6.692;2024-01-07T03:20:09;18.25;;;11.18;;
78324;SDS011;67584;51.400;6.692;2024-01-07T03:22:35;18.45;;;11.55;;
78324;SDS011;67584;51.400;6.692;2024-01-07T03:25:01;16.45;;;8.98;;
78324;SDS011;67584;51.400;6.692;2024-01-07T03:27:27;19.15;;;11.23;;
78324;SDS011;67584;51.400;6.692;2024-01-07T03:29:52;19.20;;;11.35;;
78324;SDS011;67584;51.400;6.692;2024-01-07T03:32:18;18.08;;;11.65;;
78324;SDS011;67584;51.400;6.692;2024-01-07T03:34:44;18.05;;;10.75;;
78324;SDS011;67584;51.400;6.692;2024-01-07T03:37:09;18.60;;;11.13;;
78324;SDS011;67584;51.400;6.692;2024-01-07T03:39:35;18.77;;;10.43;;
78324;SDS011;67584;51.400;6.692;2024-01-07T03:42:01;12.32;;;8.15;;
78324;SDS011;67584;51.400;6.692;2024-01-07T03:44:26;13.52;;;9.02;;
78324;SDS011;67584;51.400;6.692;2024-01-07T03:46:52;14.68;;;9.80;;
78324;SDS011;67584;51.400;6.692;2024-01-07T03:49:18;14.95;;;8.85;;
78324;SDS011;67584;51.400;6.692;2024-01-07T03:51:43;12.80;;;8.82;;
78324;SDS011;67584;51.400;6.692;2024-01-07T03:54:09;14.85;;;9.32;;
78324;SDS011;67584;51.400;6.692;2024-01-07T03:56:35;14.20;;;9.65;;
78324;SDS011;67584;51.400;6.692;2024-01-07T03:59:00;11.48;;;8.15;;
78324;SDS011;67584;51.400;6.692;2024-01-07T04:01:26;11.45;;;7.30;;
78324;SDS011;67584;51.400;6.692;2024-01-07T04:03:51;14.77;;;9.48;;
78324;SDS011;67584;51.400;6.692;2024-01-07T04:06:17;14.13;;;9.15;;
78324;SDS011;67584;51.400;6.692;2024-01-07T04:08:43;15.10;;;9.40;;
78324;SDS011;67584;51.400;6.692;2024-01-07T04:11:08;14.75;;;9.05;;
78324;SDS011;67584;51.400;6.692;2024-01-07T04:13:34;14.98;;;9.10;;
78324;SDS011;67584;51.400;6.692;2024-01-07T04:15:59;16.30;;;10.32;;
78324;SDS011;67584;51.400;6.692;2024-01-07T04:18:25;15.25;;;9.48;;
78324;SDS011;67584;51.400;6.692;2024-01-07T04:20:51;16.13;;;9.80;;
78324;SDS011;67584;51.400;6.692;2024-01-07T04:23:16;16.13;;;9.38;;
78324;SDS011;67584;51.400;6.692;2024-01-07T04:25:42;17.50;;;11.30;;
78324;SDS011;67584;51.400;6.692;2024-01-07T04:28:09;13.93;;;10.32;;
78324;SDS011;67584;51.400;6.692;2024-01-07T04:30:35;15.73;;;9.18;;
78324;SDS011;67584;51.400;6.692;2024-01-07T04:33:00;14.02;;;9.00;;
78324;SDS011;67584;51.400;6.692;2024-01-07T04:35:26;12.73;;;8.70;;
78324;SDS011;67584;51.400;6.692;2024-01-07T04:37:52;15.57;;;11.00;;
78324;SDS011;67584;51.400;6.692;2024-01-07T04:40:17;15.65;;;10.50;;
78324;SDS011;67584;51.400;6.692;2024-01-07T04:42:43;14.82;;;8.60;;
78324;SDS011;67584;51.400;6.692;2024-01-07T04:45:09;12.65;;;10.13;;
78324;SDS011;67584;51.400;6.692;2024-01-07T04:47:34;12.90;;;8.55;;
78324;SDS011;67584;51.400;6.692;2024-01-07T04:50:00;12.27;;;9.38;;
78324;SDS011;67584;51.400;6.692;2024-01-07T04:52:26;11.98;;;8.52;;
78324;SDS011;67584;51.400;6.692;2024-01-07T04:54:55;12.18;;;9.02;;
78324;SDS011;67584;51.400;6.692;2024-01-07T04:57:21;14.18;;;9.50;;
78324;SDS011;67584;51.400;6.692;2024-01-07T04:59:48;14.18;;;8.77;;
78324;SDS011;67584;51.400;6.692;2024-01-07T05:02:14;9.95;;;7.78;;
78324;SDS011;67584;51.400;6.692;2024-01-07T05:04:41;11.35;;;8.00;;
78324;SDS011;67584;51.400;6.692;2024-01-07T05:07:07;12.70;;;9.68;;
78324;SDS011;67584;51.400;6.692;2024-01-07T05:09:32;8.20;;;6.47;;
78324;SDS011;67584;51.400;6.692;2024-01-07T05:11:58;12.52;;;9.02;;
78324;SDS011;67584;51.400;6.692;2024-01-07T05:14:25;11.25;;;8.55;;
78324;SDS011;67584;51.400;6.692;2024-01-07T05:16:51;13.70;;;8.88;;
78324;SDS011;67584;51.400;6.692;2024-01-07T05:19:18;11.57;;;8.00;;
78324;SDS011;67584;51.400;6.692;2024-01-07T05:21:43;13.48;;;8.05;;
78324;SDS011;67584;51.400;6.692;2024-01-07T05:24:09;12.10;;;8.07;;
78324;SDS011;67584;51.400;6.692;2024-01-07T05:26:41;11.20;;;8.75;;
78324;SDS011;67584;51.400;6.692;2024-01-07T05:29:08;11.48;;;8.60;;
78324;SDS011;67584;51.400;6.692;2024-01-07T05:31:34;11.65;;;8.27;;
78324;SDS011;67584;51.400;6.692;2024-01-07T05:34:00;10.68;;;9.13;;
78324;SDS011;67584;51.400;6.692;2024-01-07T05:36:26;11.93;;;8.20;;
78324;SDS011;67584;51.400;6.692;2024-01-07T05:38:51;11.05;;;8.57;;
78324;SDS011;67584;51.400;6.692;2024-01-07T05:41:17;11.77;;;8.48;;
78324;SDS011;67584;51.400;6.692;2024-01-07T05:43:43;11.45;;;8.45;;
78324;SDS011;67584;51.400;6.692;2024-01-07T05:46:08;11.95;;;10.05;;
78324;SDS011;67584;51.400;6.692;2024-01-07T05:48:42;11.40;;;8.05;;
78324;SDS011;67584;51.400;6.692;2024-01-07T05:51:09;12.15;;;9.77;;
78324;SDS011;67584;51.400;6.692;2024-01-07T05:53:35;11.77;;;8.85;;
78324;SDS011;67584;51.400;6.692;2024-01-07T05:56:00;13.25;;;10.27;;
78324;SDS011;67584;51.400;6.692;2024-01-07T05:58:26;12.45;;;8.88;;
78324;SDS011;67584;51.400;6.692;2024-01-07T06:00:51;13.48;;;9.02;;
78324;SDS011;67584;51.400;6.692;2024-01-07T06:03:17;13.50;;;8.38;;
78324;SDS011;67584;51.400;6.692;2024-01-07T06:05:43;15.45;;;8.15;;
78324;SDS011;67584;51.400;6.692;2024-01-07T06:08:09;12.98;;;7.70;;
78324;SDS011;67584;51.400;6.692;2024-01-07T06:10:35;14.32;;;8.93;;
78324;SDS011;67584;51.400;6.692;2024-01-07T06:13:01;12.30;;;9.32;;
78324;SDS011;67584;51.400;6.692;2024-01-07T06:15:28;14.00;;;8.05;;
78324;SDS011;67584;51.400;6.692;2024-01-07T06:17:54;14.15;;;10.15;;
78324;SDS011;67584;51.400;6.692;2024-01-07T06:20:20;8.68;;;6.18;;
78324;SDS011;67584;51.400;6.692;2024-01-07T06:22:46;12.80;;;8.13;;
78324;SDS011;67584;51.400;6.692;2024-01-07T06:25:12;10.60;;;7.78;;
78324;SDS011;67584;51.400;6.692;2024-01-07T06:27:40;13.65;;;8.93;;
78324;SDS011;67584;51.400;6.692;2024-01-07T06:30:06;14.27;;;9.60;;
78324;SDS011;67584;51.400;6.692;2024-01-07T06:32:32;13.48;;;9.48;;
78324;SDS011;67584;51.400;6.692;2024-01-07T06:34:58;11.57;;;8.38;;
78324;SDS011;67584;51.400;6.692;2024-01-07T06:37:24;13.05;;;8.63;;
78324;SDS011;67584;51.400;6.692;2024-01-07T06:39:50;11.50;;;8.35;;
78324;SDS011;67584;51.400;6.692;2024-01-07T06:42:16;15.50;;;9.63;;
78324;SDS011;67584;51.400;6.692;2024-01-07T06:44:42;13.98;;;9.35;;
78324;SDS011;67584;51.400;6.692;2024-01-07T06:47:08;13.52;;;9.00;;
78324;SDS011;67584;51.400;6.692;2024-01-07T06:49:34;13.85;;;9.15;;
78324;SDS011;67584;51.400;6.692;2024-01-07T06:52:00;12.43;;;8.93;;
78324;SDS011;67584;51.400;6.692;2024-01-07T06:54:26;15.93;;;9.10;;
78324;SDS011;67584;51.400;6.692;2024-01-07T06:56:52;17.17;;;10.35;;
78324;SDS011;67584;51.400;6.692;2024-01-07T06:59:17;11.88;;;8.32;;
78324;SDS011;67584;51.400;6.692;2024-01-07T07:01:43;14.48;;;9.57;;
78324;SDS011;67584;51.400;6.692;2024-01-07T07:04:09;14.30;;;9.65;;
78324;SDS011;67584;51.400;6.692;2024-01-07T07:06:34;12.70;;;9.65;;
78324;SDS011;67584;51.400;6.692;2024-01-07T07:09:00;10.65;;;8.18;;
78324;SDS011;67584;51.400;6.692;2024-01-07T07:11:26;11.23;;;8.65;;
78324;SDS011;67584;51.400;6.692;2024-01-07T07:13:51;11.65;;;8.00;;
78324;SDS011;67584;51.400;6.692;2024-01-07T07:16:17;11.18;;;8.85;;
78324;SDS011;67584;51.400;6.692;2024-01-07T07:18:43;12.82;;;8.00;;
78324;SDS011;67584;51.400;6.692;2024-01-07T07:21:08;9.60;;;6.68;;
78324;SDS011;67584;51.400;6.692;2024-01-07T07:23:34;11.57;;;8.98;;
78324;SDS011;67584;51.400;6.692;2024-01-07T07:26:00;13.63;;;9.00;;
78324;SDS011;67584;51.400;6.692;2024-01-07T07:28:25;15.05;;;10.52;;
78324;SDS011;67584;51.400;6.692;2024-01-07T07:30:52;11.43;;;7.75;;
78324;SDS011;67584;51.400;6.692;2024-01-07T07:33:18;11.88;;;7.70;;
78324;SDS011;67584;51.400;6.692;2024-01-07T07:35:43;11.50;;;7.68;;
78324;SDS011;67584;51.400;6.692;2024-01-07T07:38:09;11.30;;;7.50;;
78324;SDS011;67584;51.400;6.692;2024-01-07T07:40:35;13.35;;;7.65;;
78324;SDS011;67584;51.400;6.692;2024-01-07T07:43:01;9.73;;;6.25;;
78324;SDS011;67584;51.400;6.692;2024-01-07T07:45:26;9.40;;;7.78;;
78324;SDS011;67584;51.400;6.692;2024-01-07T07:47:52;12.52;;;8.60;;
78324;SDS011;67584;51.400;6.692;2024-01-07T07:50:17;14.00;;;10.38;;
78324;SDS011;67584;51.400;6.692;2024-01-07T07:52:43;10.10;;;7.47;;
78324;SDS011;67584;51.400;6.692;2024-01-07T07:55:09;11.75;;;7.60;;
78324;SDS011;67584;51.400;6.692;2024-01-07T07:57:35;10.38;;;8.77;;
78324;SDS011;67584;51.400;6.692;2024-01-07T08:00:03;9.48;;;7.18;;
78324;SDS011;67584;51.400;6.692;2024-01-07T08:02:30;8.13;;;6.18;;
78324;SDS011;67584;51.400;6.692;2024-01-07T08:04:56;11.80;;;7.95;;
78324;SDS011;67584;51.400;6.692;2024-01-07T08:07:22;12.77;;;8.15;;
78324;SDS011;67584;51.400;6.692;2024-01-07T08:09:47;11.27;;;7.60;;
78324;SDS011;67584;51.400;6.692;2024-01-07T08:12:13;10.48;;;8.40;;
78324;SDS011;67584;51.400;6.692;2024-01-07T08:14:38;11.45;;;8.38;;
78324;SDS011;67584;51.400;6.692;2024-01-07T08:17:07;11.77;;;7.95;;
78324;SDS011;67584;51.400;6.692;2024-01-07T08:19:33;11.25;;;8.57;;
78324;SDS011;67584;51.400;6.692;2024-01-07T08:21:59;11.15;;;8.20;;
78324;SDS011;67584;51.400;6.692;2024-01-07T08:24:25;10.98;;;6.70;;
78324;SDS011;67584;51.400;6.692;2024-01-07T08:26:50;10.73;;;7.78;;
78324;SDS011;67584;51.400;6.692;2024-01-07T08:29:17;10.32;;;7.78;;
78324;SDS011;67584;51.400;6.692;2024-01-07T08:31:42;10.52;;;7.75;;
78324;SDS011;67584;51.400;6.692;2024-01-07T08:34:08;10.93;;;7.70;;
78324;SDS011;67584;51.400;6.692;2024-01-07T08:36:34;13.82;;;8.57;;
78324;SDS011;67584;51.400;6.692;2024-01-07T08:39:00;9.68;;;8.20;;
78324;SDS011;67584;51.400;6.692;2024-01-07T08:41:26;11.57;;;9.13;;
78324;SDS011;67584;51.400;6.692;2024-01-07T08:43:51;11.18;;;7.35;;
78324;SDS011;67584;51.400;6.692;2024-01-07T08:46:23;9.25;;;7.00;;
78324;SDS011;67584;51.400;6.692;2024-01-07T08:48:49;9.85;;;7.18;;
78324;SDS011;67584;51.400;6.692;2024-01-07T08:51:15;6.25;;;5.63;;
78324;SDS011;67584;51.400;6.692;2024-01-07T08:53:41;7.68;;;5.80;;
78324;SDS011;67584;51.400;6.692;2024-01-07T08:56:06;11.80;;;8.65;;
78324;SDS011;67584;51.400;6.692;2024-01-07T08:58:32;7.25;;;5.90;;
78324;SDS011;67584;51.400;6.692;2024-01-07T09:00:58;9.43;;;6.65;;
78324;SDS011;67584;51.400;6.692;2024-01-07T09:03:24;12.60;;;7.15;;
78324;SDS011;67584;51.400;6.692;2024-01-07T09:05:57;11.13;;;8.07;;
78324;SDS011;67584;51.400;6.692;2024-01-07T09:08:23;10.48;;;6.65;;
78324;SDS011;67584;51.400;6.692;2024-01-07T09:10:49;10.35;;;7.32;;
78324;SDS011;67584;51.400;6.692;2024-01-07T09:13:15;8.70;;;6.82;;
78324;SDS011;67584;51.400;6.692;2024-01-07T09:15:41;9.95;;;7.70;;
78324;SDS011;67584;51.400;6.692;2024-01-07T09:18:07;8.50;;;7.50;;
78324;SDS011;67584;51.400;6.692;2024-01-07T09:20:33;9.68;;;7.13;;
78324;SDS011;67584;51.400;6.692;2024-01-07T09:22:59;8.30;;;6.28;;
78324;SDS011;67584;51.400;6.692;2024-01-07T09:25:24;7.93;;;6.95;;
78324;SDS011;67584;51.400;6.692;2024-01-07T09:27:53;8.65;;;6.85;;
78324;SDS011;67584;51.400;6.692;2024-01-07T09:30:18;10.07;;;7.53;;
78324;SDS011;67584;51.400;6.692;2024-01-07T09:32:44;8.40;;;7.28;;
78324;SDS011;67584;51.400;6.692;2024-01-07T09:35:10;7.65;;;6.30;;
78324;SDS011;67584;51.400;6.692;2024-01-07T09:37:35;7.68;;;6.38;;
78324;SDS011;67584;51.400;6.692;2024-01-07T09:40:02;9.70;;;7.70;;
78324;SDS011;67584;51.400;6.692;2024-01-07T09:42:29;13.25;;;7.20;;
78324;SDS011;67584;51.400;6.692;2024-01-07T09:44:55;9.63;;;6.85;;
78324;SDS011;67584;51.400;6.692;2024-01-07T09:47:21;6.50;;;5.85;;
78324;SDS011;67584;51.400;6.692;2024-01-07T09:49:48;8.13;;;6.03;;
78324;SDS011;67584;51.400;6.692;2024-01-07T09:52:14;7.80;;;6.10;;
78324;SDS011;67584;51.400;6.692;2024-01-07T09:54:42;7.75;;;6.72;;
78324;SDS011;67584;51.400;6.692;2024-01-07T09:57:16;10.27;;;7.20;;
78324;SDS011;67584;51.400;6.692;2024-01-07T09:59:41;8.15;;;7.10;;
78324;SDS011;67584;51.400;6.692;2024-01-07T10:02:07;8.25;;;7.10;;
78324;SDS011;67584;51.400;6.692;2024-01-07T10:04:34;8.68;;;7.38;;
78324;SDS011;67584;51.400;6.692;2024-01-07T10:07:00;8.32;;;6.30;;
78324;SDS011;67584;51.400;6.692;2024-01-07T10:09:33;8.75;;;6.68;;
78324;SDS011;67584;51.400;6.692;2024-01-07T10:11:59;9.35;;;6.32;;
78324;SDS011;67584;51.400;6.692;2024-01-07T10:14:25;6.68;;;5.43;;
78324;SDS011;67584;51.400;6.692;2024-01-07T10:16:51;7.97;;;7.18;;
78324;SDS011;67584;51.400;6.692;2024-01-07T10:19:19;9.13;;;7.57;;
78324;SDS011;67584;51.400;6.692;2024-01-07T10:22:09;7.32;;;6.05;;
78324;SDS011;67584;51.400;6.692;2024-01-07T10:24:37;7.72;;;6.95;;
78324;SDS011;67584;51.400;6.692;2024-01-07T10:27:04;8.52;;;7.28;;
78324;SDS011;67584;51.400;6.692;2024-01-07T10:29:31;11.10;;;8.93;;
78324;SDS011;67584;51.400;6.692;2024-01-07T10:31:57;6.95;;;6.10;;
78324;SDS011;67584;51.400;6.692;2024-01-07T10:34:27;9.35;;;6.78;;
78324;SDS011;67584;51.400;6.692;2024-01-07T10:36:59;7.60;;;6.30;;
78324;SDS011;67584;51.400;6.692;2024-01-07T10:39:25;8.85;;;6.53;;
78324;SDS011;67584;51.400;6.692;2024-01-07T10:41:51;8.65;;;6.60;;
78324;SDS011;67584;51.400;6.692;2024-01-07T10:44:22;7.25;;;5.75;;
78324;SDS011;67584;51.400;6.692;2024-01-07T10:46:53;10.15;;;6.97;;
78324;SDS011;67584;51.400;6.692;2024-01-07T10:49:20;10.25;;;6.88;;
78324;SDS011;67584;51.400;6.692;2024-01-07T10:52:05;6.38;;;5.43;;
78324;SDS011;67584;51.400;6.692;2024-01-07T10:54:33;5.25;;;4.55;;
78324;SDS011;67584;51.400;6.692;2024-01-07T10:59:42;5.03;;;4.07;;
78324;SDS011;67584;51.400;6.692;2024-01-07T11:02:10;5.22;;;4.72;;
78324;SDS011;67584;51.400;6.692;2024-01-07T11:07:39;7.68;;;6.03;;
78324;SDS011;67584;51.400;6.692;2024-01-07T11:10:20;5.78;;;5.25;;
78324;SDS011;67584;51.400;6.692;2024-01-07T11:12:55;8.18;;;6.05;;
78324;SDS011;67584;51.400;6.692;2024-01-07T11:18:21;4.43;;;3.60;;
78324;SDS011;67584;51.400;6.692;2024-01-07T11:20:47;6.18;;;5.57;;
78324;SDS011;67584;51.400;6.692;2024-01-07T11:23:26;6.72;;;4.93;;
78324;SDS011;67584;51.400;6.692;2024-01-07T11:26:01;7.90;;;5.80;;
78324;SDS011;67584;51.400;6.692;2024-01-07T11:31:20;5.03;;;4.60;;
78324;SDS011;67584;51.400;6.692;2024-01-07T11:33:50;6.70;;;5.45;;
78324;SDS011;67584;51.400;6.692;2024-01-07T11:36:17;5.03;;;4.53;;
78324;SDS011;67584;51.400;6.692;2024-01-07T11:38:43;7.03;;;5.45;;
78324;SDS011;67584;51.400;6.692;2024-01-07T11:41:14;6.72;;;6.00;;
78324;SDS011;67584;51.400;6.692;2024-01-07T11:43:56;6.28;;;4.90;;
78324;SDS011;67584;51.400;6.692;2024-01-07T11:46:26;6.10;;;5.28;;
78324;SDS011;67584;51.400;6.692;2024-01-07T11:48:53;5.72;;;5.15;;
78324;SDS011;67584;51.400;6.692;2024-01-07T11:51:27;5.03;;;4.50;;
78324;SDS011;67584;51.400;6.692;2024-01-07T11:53:55;5.03;;;4.18;;
78324;SDS011;67584;51.400;6.692;2024-01-07T11:56:23;5.18;;;4.57;;
78324;SDS011;67584;51.400;6.692;2024-01-07T11:58:49;4.75;;;4.13;;
78324;SDS011;67584;51.400;6.692;2024-01-07T12:01:15;3.42;;;3.08;;
78324;SDS011;67584;51.400;6.692;2024-01-07T12:03:43;7.13;;;4.53;;
78324;SDS011;67584;51.400;6.692;2024-01-07T12:06:09;6.47;;;5.28;;
78324;SDS011;67584;51.400;6.692;2024-01-07T12:08:41;6.05;;;4.78;;
78324;SDS011;67584;51.400;6.692;2024-01-07T12:11:08;5.47;;;4.68;;
78324;SDS011;67584;51.400;6.692;2024-01-07T12:13:36;6.25;;;5.03;;
78324;SDS011;67584;51.400;6.692;2024-01-07T12:16:02;6.20;;;4.55;;
78324;SDS011;67584;51.400;6.692;2024-01-07T12:18:29;6.32;;;5.03;;
78324;SDS011;67584;51.400;6.692;2024-01-07T12:20:58;5.03;;;4.32;;
78324;SDS011;67584;51.400;6.692;2024-01-07T12:23:28;6.40;;;5.28;;
78324;SDS011;67584;51.400;6.692;2024-01-07T12:25:53;4.85;;;4.35;;
78324;SDS011;67584;51.400;6.692;2024-01-07T12:28:21;4.47;;;4.07;;
78324;SDS011;67584;51.400;6.692;2024-01-07T12:30:50;4.40;;;4.00;;
78324;SDS011;67584;51.400;6.692;2024-01-07T12:33:21;4.85;;;3.95;;
78324;SDS011;67584;51.400;6.692;2024-01-07T12:35:47;4.93;;;3.72;;
78324;SDS011;67584;51.400;6.692;2024-01-07T12:38:13;4.82;;;3.85;;
78324;SDS011;67584;51.400;6.692;2024-01-07T12:40:39;3.92;;;3.53;;
78324;SDS011;67584;51.400;6.692;2024-01-07T12:43:05;5.10;;;3.97;;
78324;SDS011;67584;51.400;6.692;2024-01-07T12:45:32;6.85;;;4.13;;
78324;SDS011;67584;51.400;6.692;2024-01-07T12:47:58;4.60;;;4.20;;
78324;SDS011;67584;51.400;6.692;2024-01-07T12:50:27;4.10;;;3.70;;
78324;SDS011;67584;51.400;6.692;2024-01-07T12:52:55;5.40;;;3.97;;
78324;SDS011;67584;51.400;6.692;2024-01-07T12:55:21;4.47;;;4.07;;
78324;SDS011;67584;51.400;6.692;2024-01-07T12:57:47;3.40;;;3.08;;
78324;SDS011;67584;51.400;6.692;2024-01-07T13:00:14;4.05;;;3.35;;
78324;SDS011;67584;51.400;6.692;2024-01-07T13:02:40;3.80;;;3.50;;
78324;SDS011;67584;51.400;6.692;2024-01-07T13:05:06;5.00;;;4.03;;
78324;SDS011;67584;51.400;6.692;2024-01-07T13:07:32;4.47;;;4.05;;
78324;SDS011;67584;51.400;6.692;2024-01-07T13:09:58;4.20;;;3.60;;
78324;SDS011;67584;51.400;6.692;2024-01-07T13:12:24;4.40;;;3.00;;
78324;SDS011;67584;51.400;6.692;2024-01-07T13:14:51;5.10;;;3.90;;
78324;SDS011;67584;51.400;6.692;2024-01-07T13:17:17;4.10;;;3.70;;
78324;SDS011;67584;51.400;6.692;2024-01-07T13:19:44;5.30;;;4.15;;
78324;SDS011;67584;51.400;6.692;2024-01-07T13:22:09;5.30;;;4.65;;
78324;SDS011;67584;51.400;6.692;2024-01-07T13:24:36;5.03;;;4.07;;
78324;SDS011;67584;51.400;6.692;2024-01-07T13:27:02;4.00;;;3.60;;
78324;SDS011;67584;51.400;6.692;2024-01-07T13:29:27;8.60;;;3.85;;
78324;SDS011;67584;51.400;6.692;2024-01-07T13:31:53;7.38;;;4.05;;
78324;SDS011;67584;51.400;6.692;2024-01-07T13:34:19;4.47;;;3.40;;
78324;SDS011;67584;51.400;6.692;2024-01-07T13:36:45;5.70;;;4.35;;
78324;SDS011;67584;51.400;6.692;2024-01-07T13:39:11;5.10;;;3.90;;
78324;SDS011;67584;51.400;6.692;2024-01-07T13:41:37;6.68;;;4.03;;
78324;SDS011;67584;51.400;6.692;2024-01-07T13:44:05;4.00;;;3.60;;
78324;SDS011;67584;51.400;6.692;2024-01-07T13:46:32;5.10;;;4.07;;
78324;SDS011;67584;51.400;6.692;2024-01-07T13:48:58;6.35;;;4.68;;
78324;SDS011;67584;51.400;6.692;2024-01-07T13:51:24;4.75;;;4.07;;
78324;SDS011;67584;51.400;6.692;2024-01-07T13:53:51;5.13;;;3.58;;
78324;SDS011;67584;51.400;6.692;2024-01-07T13:56:17;4.60;;;3.88;;
78324;SDS011;67584;51.400;6.692;2024-01-07T13:58:43;3.85;;;2.97;;
78324;SDS011;67584;51.400;6.692;2024-01-07T14:01:11;3.92;;;3.53;;
78324;SDS011;67584;51.400;6.692;2024-01-07T14:03:38;5.03;;;3.40;;
78324;SDS011;67584;51.400;6.692;2024-01-07T14:06:12;3.47;;;3.17;;
78324;SDS011;67584;51.400;6.692;2024-01-07T14:08:38;4.13;;;3.72;;
78324;SDS011;67584;51.400;6.692;2024-01-07T14:11:04;4.20;;;3.20;;
78324;SDS011;67584;51.400;6.692;2024-01-07T14:13:32;3.78;;;3.47;;
78324;SDS011;67584;51.400;6.692;2024-01-07T14:15:57;3.78;;;3.35;;
78324;SDS011;67584;51.400;6.692;2024-01-07T14:18:23;4.47;;;3.22;;
78324;SDS011;67584;51.400;6.692;2024-01-07T14:20:49;5.03;;;3.80;;
78324;SDS011;67584;51.400;6.692;2024-01-07T14:23:14;3.53;;;3.20;;
78324;SDS011;67584;51.400;6.692;2024-01-07T14:25:40;4.72;;;4.18;;
78324;SDS011;67584;51.400;6.692;2024-01-07T14:28:06;3.63;;;3.28;;
78324;SDS011;67584;51.400;6.692;2024-01-07T14:30:32;3.80;;;3.40;;
78324;SDS011;67584;51.400;6.692;2024-01-07T14:32:58;5.45;;;3.70;;
78324;SDS011;67584;51.400;6.692;2024-01-07T14:35:24;3.05;;;2.85;;
78324;SDS011;67584;51.400;6.692;2024-01-07T14:37:51;3.70;;;3.25;;
78324;SDS011;67584;51.400;6.692;2024-01-07T14:40:20;3.78;;;3.13;;
78324;SDS011;67584;51.400;6.692;2024-01-07T14:42:45;4.85;;;4.55;;
78324;SDS011;67584;51.400;6.692;2024-01-07T14:45:11;3.22;;;2.97;;